Station Name: Melbourne Gliding Club - YBSS

Location: Parwan, VIC, Australia
Last Updated on Oct 21 2020, 3:05 pm AEDT
 
Wind Direction: North
Wind Degrees: 360
Wind Speed (kts): 5
Wind 10 min AVG (kts): 5
Wind 10 min gust (kts): 10
Estimated Cloudbase QNH: 5400 feet
Temperature (C): 19.2
Dewpoint (C): 9.4
Soil temp (C): 26.4
UV index: 4.0
.
Temperature HIGH (day): 19.8 at 4:08am
Temperature LOW (day): 14.4 at 12:00am
Humidity: 54% Feels like: 19.4
Barometer: 996.8 mb Falling Slowly
Solar radiation (W/m2): 1005
------- .
Sunrise: 12:35am
Sunset: 12:06pm
Rain past 24hrs: 0 mm
Seaonal total: 0.5 mm
Soil temp (C): 26.4
Soil moisture* (cb): 45 (200 is dry)
Indoor Temperature (C): 18.9
Indoor Humidity: 37%


TAF YMAV 202318Z 2100/2200 15008KT 9999 SCT030 BECMG 2114/2116 VRB03KT 9999 SCT015 BECMG 2122/2200 12006KT 9999 SCT020 TEMPO 2115/2123 9999 BKN012

YMAV 210330Z AUTO 12011KT 9999 // SCT038 SCT045 17/10 Q1015